Time;durP1;ratioP1;P1;durP2;ratioP2;P2;SDS_P1;SDS_P2;PMS_P1;PMS_P2;Temp;Humidity;BMP_temperature;BMP_pressure;BME280_temperature;BME280_humidity;BME280_pressure;Samples;Min_cycle;Max_cycle;Signal;HPM_P1;HPM_P2
2023/11/14 00:01:55;;;;;;;6.78;3.13;;;;;;;14.79;100.00;98893.50;6313921;22;20455;-94
2023/11/14 00:04:22;;;;;;;13.70;3.85;;;;;;;15.16;100.00;98954.41;6316436;22;20014;-94
2023/11/14 00:06:48;;;;;;;12.75;3.10;;;;;;;14.64;100.00;98856.66;6316081;22;20333;-94
2023/11/14 00:09:14;;;;;;;7.90;3.92;;;;;;;15.39;100.00;98972.16;6341748;22;20022;-94
2023/11/14 00:11:41;;;;;;;12.70;3.28;;;;;;;15.64;100.00;99018.47;6316123;22;20026;-94
2023/11/14 00:14:07;;;;;;;12.70;3.65;;;;;;;15.17;100.00;98944.56;6319175;22;20463;-95
2023/11/14 00:16:33;;;;;;;8.63;3.95;;;;;;;15.11;100.00;98945.66;6315364;22;20019;-94
2023/11/14 00:18:59;;;;;;;13.60;4.18;;;;;;;15.50;100.00;98994.94;6315489;22;20475;-94
2023/11/14 00:21:26;;;;;;;10.90;4.10;;;;;;;15.50;100.00;98985.06;6316255;22;20430;-94
2023/11/14 00:23:52;;;;;;;13.52;3.85;;;;;;;15.35;100.00;98951.81;6315623;22;20068;-94
2023/11/14 00:26:18;;;;;;;8.13;3.00;;;;;;;14.92;100.00;98881.34;6315564;22;20022;-95
2023/11/14 00:28:45;;;;;;;11.68;3.70;;;;;;;15.16;100.00;98916.03;6318071;22;20019;-93
2023/11/14 00:31:10;;;;;;;10.82;3.53;;;;;;;15.47;100.00;98976.31;6316327;22;20072;-94
2023/11/14 00:33:36;;;;;;;7.97;3.42;;;;;;;15.71;100.00;99007.44;6315971;22;20010;-94
2023/11/14 00:36:02;;;;;;;16.77;4.35;;;;;;;15.53;100.00;98987.63;6316683;22;20027;-93
2023/11/14 00:38:30;;;;;;;11.23;2.90;;;;;;;15.54;100.00;98967.06;6315893;22;20028;-94
2023/11/14 00:40:56;;;;;;;15.30;3.75;;;;;;;14.91;100.00;98873.38;6314608;22;20023;-93
2023/11/14 00:43:22;;;;;;;9.70;3.10;;;;;;;15.53;100.00;99000.19;6314778;22;20018;-95
2023/11/14 00:45:48;;;;;;;13.05;3.58;;;;;;;15.43;100.00;98993.47;6315868;22;20025;-94
2023/11/14 00:48:14;;;;;;;14.43;3.30;;;;;;;15.40;100.00;98994.47;6316086;22;20056;-95
2023/11/14 00:50:39;;;;;;;12.00;3.67;;;;;;;15.51;100.00;99005.59;6315825;22;20011;-94
2023/11/14 00:53:05;;;;;;;15.63;3.00;;;;;;;15.39;100.00;98976.63;6315907;22;20395;-94
2023/11/14 00:55:33;;;;;;;9.55;3.55;;;;;;;15.66;100.00;99038.91;6315633;22;20023;-94
2023/11/14 00:57:59;;;;;;;10.50;3.13;;;;;;;15.53;100.00;99005.53;6315403;22;20010;-92
2023/11/14 01:00:26;;;;;;;10.07;2.45;;;;;;;15.79;100.00;99032.09;6318299;22;20345;-92
2023/11/14 01:02:54;;;;;;;9.05;3.22;;;;;;;15.07;100.00;98930.69;6317327;22;20015;-93
2023/11/14 01:05:23;;;;;;;13.57;3.65;;;;;;;15.43;100.00;99005.03;6317933;22;20450;-92
2023/11/14 01:07:49;;;;;;;12.93;3.72;;;;;;;15.21;100.00;98946.16;6346806;22;20019;-93
2023/11/14 01:10:14;;;;;;;13.25;3.67;;;;;;;14.76;100.00;98883.78;6342032;22;20113;-93
2023/11/14 01:12:42;;;;;;;11.30;3.67;;;;;;;15.12;100.00;98928.69;6323784;22;19999;-93
2023/11/14 01:15:08;;;;;;;6.97;3.22;;;;;;;15.22;100.00;98928.28;6315972;22;20019;-93
2023/11/14 01:17:34;;;;;;;15.13;3.33;;;;;;;15.52;100.00;98985.88;6315577;22;20048;-93
2023/11/14 01:20:00;;;;;;;12.73;3.75;;;;;;;15.29;100.00;98937.78;6340018;22;20002;-94
2023/11/14 01:22:26;;;;;;;12.70;3.05;;;;;;;14.89;100.00;98875.22;6315299;22;20082;-94
2023/11/14 01:24:53;;;;;;;9.00;3.45;;;;;;;14.98;100.00;98897.16;6314796;22;20023;-94
2023/11/14 01:27:18;;;;;;;11.25;3.67;;;;;;;15.35;100.00;98943.78;6314916;22;20022;-93
2023/11/14 01:29:47;;;;;;;14.50;3.42;;;;;;;15.04;100.00;98909.38;6345748;22;20022;-94
2023/11/14 01:32:13;;;;;;;9.75;3.38;;;;;;;15.47;100.00;98974.50;6315790;22;20019;-94
2023/11/14 01:34:38;;;;;;;8.57;3.90;;;;;;;15.14;100.00;98910.75;6316363;22;20256;-93
2023/11/14 01:37:10;;;;;;;12.43;4.05;;;;;;;15.22;100.00;98917.56;6315407;22;20106;-93
2023/11/14 01:39:36;;;;;;;11.07;3.78;;;;;;;14.98;100.00;98907.84;6315422;22;20026;-92
2023/11/14 01:42:01;;;;;;;10.43;3.28;;;;;;;15.57;100.00;99017.84;6315213;22;20023;-93
2023/11/14 01:44:27;;;;;;;13.95;4.47;;;;;;;15.47;100.00;98993.25;6315567;22;20045;-93
2023/11/14 01:46:55;;;;;;;17.08;4.68;;;;;;;15.11;100.00;98934.09;6314308;22;20015;-94
2023/11/14 01:49:21;;;;;;;9.90;3.17;;;;;;;15.55;100.00;98992.94;6315022;22;20015;-92
2023/11/14 01:51:47;;;;;;;16.55;3.30;;;;;;;15.11;100.00;98936.78;6315397;22;20025;-93
2023/11/14 01:54:15;;;;;;;5.90;3.15;;;;;;;15.41;100.00;98967.59;6315542;22;20106;-94
2023/11/14 01:56:42;;;;;;;13.10;4.78;;;;;;;15.08;100.00;98904.78;6315104;22;20046;-93
2023/11/14 01:59:08;;;;;;;11.85;3.72;;;;;;;14.95;100.00;98891.91;6313960;22;20349;-94
2023/11/14 02:01:34;;;;;;;11.68;3.00;;;;;;;14.92;100.00;98926.84;6320125;22;19999;-94
2023/11/14 02:04:07;;;;;;;10.25;3.30;;;;;;;14.65;100.00;98875.34;6316450;22;20023;-94
2023/11/14 02:06:34;;;;;;;7.38;2.78;;;;;;;15.23;100.00;98986.28;6315506;22;20019;-94
2023/11/14 02:09:00;;;;;;;10.82;3.80;;;;;;;14.83;100.00;98953.13;6314853;22;20064;-92
2023/11/14 02:11:26;;;;;;;11.30;3.67;;;;;;;14.96;100.00;98982.03;6313797;22;20019;-94
2023/11/14 02:13:52;;;;;;;12.48;3.33;;;;;;;14.66;100.00;98945.78;6315388;22;20494;-94
2023/11/14 02:16:18;;;;;;;14.68;3.15;;;;;;;14.54;100.00;98915.03;6315046;22;20128;-93
2023/11/14 02:18:44;;;;;;;11.75;3.55;;;;;;;14.96;100.00;98995.41;6315138;22;20014;-93
2023/11/14 02:21:13;;;;;;;10.75;2.97;;;;;;;14.94;100.00;98993.72;6341675;22;20084;-92
2023/11/14 02:23:40;;;;;;;7.70;2.95;;;;;;;14.96;100.00;98981.13;6315362;22;20023;-92
2023/11/14 02:26:08;;;;;;;14.20;3.45;;;;;;;14.54;100.00;98923.06;6315156;22;20051;-92
2023/11/14 02:28:33;;;;;;;10.57;3.08;;;;;;;14.84;100.00;98957.56;6315307;22;20019;-94
2023/11/14 02:31:00;;;;;;;12.90;3.28;;;;;;;14.81;100.00;98947.84;6316995;22;20044;-95
2023/11/14 02:33:26;;;;;;;12.98;3.58;;;;;;;14.67;100.00;98928.81;6317461;22;20024;-94
2023/11/14 02:35:51;;;;;;;7.65;3.05;;;;;;;14.81;100.00;98950.50;6315456;22;20018;-94
2023/11/14 02:38:18;;;;;;;11.25;3.15;;;;;;;14.39;100.00;98877.25;6341072;22;20025;-94
2023/11/14 02:40:46;;;;;;;15.13;2.78;;;;;;;14.62;100.00;98912.94;6313963;22;20105;-94
2023/11/14 02:43:13;;;;;;;11.38;3.22;;;;;;;14.56;100.00;98913.19;6316806;22;20018;-93
2023/11/14 02:45:42;;;;;;;12.02;2.72;;;;;;;14.07;100.00;98842.91;6316655;22;20022;-94
2023/11/14 02:48:08;;;;;;;13.65;2.60;;;;;;;14.73;100.00;98966.03;6317326;22;19999;-95
2023/11/14 02:50:50;;;;;;;10.27;2.85;;;;;;;14.54;100.00;98931.94;6316921;22;20349;-94
2023/11/14 02:53:16;;;;;;;8.85;2.90;;;;;;;14.66;100.00;98964.53;6316800;22;20003;-94
2023/11/14 02:55:43;;;;;;;11.35;3.38;;;;;;;14.25;100.00;98903.72;6316947;22;20042;-94
2023/11/14 02:58:09;;;;;;;9.38;2.95;;;;;;;14.34;100.00;98931.88;6315634;22;20022;-92
2023/11/14 03:00:36;;;;;;;13.15;3.63;;;;;;;14.05;100.00;98869.75;6316666;22;20015;-93
2023/11/14 03:03:02;;;;;;;12.52;4.47;;;;;;;14.12;100.00;98873.03;6316749;22;20444;-93
2023/11/14 03:05:28;;;;;;;11.50;5.00;;;;;;;14.60;100.00;98954.09;6316623;22;20076;-94
2023/11/14 03:07:54;;;;;;;8.27;3.83;;;;;;;13.84;100.00;98838.50;6316864;22;20429;-93
2023/11/14 03:10:20;;;;;;;17.17;3.83;;;;;;;14.32;100.00;98929.25;6316894;22;20019;-93
2023/11/14 03:12:46;;;;;;;12.98;4.72;;;;;;;13.87;100.00;98862.41;6317252;22;20019;-92
2023/11/14 03:15:12;;;;;;;13.20;5.40;;;;;;;14.18;100.00;98926.25;6315857;22;20508;-93
2023/11/14 03:17:39;;;;;;;13.43;3.22;;;;;;;13.63;100.00;98800.97;6316756;22;20015;-92
2023/11/14 03:20:06;;;;;;;11.68;3.67;;;;;;;14.26;100.00;98904.56;6316451;22;20513;-93
2023/11/14 03:22:32;;;;;;;13.98;3.55;;;;;;;14.34;100.00;98915.84;6341834;22;20048;-93
2023/11/14 03:24:58;;;;;;;10.68;4.80;;;;;;;14.08;100.00;98864.25;6315558;22;20019;-94
2023/11/14 03:27:24;;;;;;;13.98;3.25;;;;;;;14.28;100.00;98882.16;6316381;22;20015;-94
2023/11/14 03:29:50;;;;;;;12.07;3.17;;;;;;;14.54;100.00;98912.34;6316514;22;20027;-92
2023/11/14 03:32:16;;;;;;;10.52;3.88;;;;;;;14.66;100.00;98914.56;6315964;22;20026;-92
2023/11/14 03:34:43;;;;;;;13.93;3.67;;;;;;;14.77;100.00;98893.56;6316003;22;20018;-92
2023/11/14 03:37:09;;;;;;;11.18;3.92;;;;;;;15.01;100.00;98917.56;6316471;22;20021;-93
2023/11/14 03:39:35;;;;;;;10.90;3.55;;;;;;;15.03;100.00;98886.22;6319168;22;20027;-94
2023/11/14 03:42:00;;;;;;;13.43;3.72;;;;;;;15.02;100.00;98878.25;6315395;22;20010;-95
2023/11/14 03:44:26;;;;;;;13.55;3.28;;;;;;;14.91;100.00;98858.16;6316249;22;20030;-94
2023/11/14 03:46:52;;;;;;;7.93;2.97;;;;;;;15.29;100.00;98909.19;6315699;22;20018;-95
2023/11/14 03:49:18;;;;;;;13.73;4.07;;;;;;;15.15;100.00;98874.09;6342007;22;20025;-94
2023/11/14 03:51:45;;;;;;;10.02;3.97;;;;;;;15.25;100.00;98888.84;6316385;22;20026;-94
2023/11/14 03:54:11;;;;;;;12.57;2.85;;;;;;;15.41;100.00;98905.09;6315879;22;19995;-93
2023/11/14 03:56:37;;;;;;;12.63;2.78;;;;;;;15.31;100.00;98872.50;6316505;22;20019;-94
2023/11/14 03:59:02;;;;;;;12.23;2.58;;;;;;;15.23;100.00;98880.00;6315673;22;20395;-95
2023/11/14 04:01:28;;;;;;;13.25;2.80;;;;;;;15.26;100.00;98858.41;6315091;22;20026;-94
2023/11/14 04:03:54;;;;;;;10.07;3.47;;;;;;;15.60;100.00;98914.03;6316028;22;20797;-93
2023/11/14 04:06:20;;;;;;;9.95;3.20;;;;;;;15.71;100.00;98939.50;6316018;22;20015;-95
2023/11/14 04:08:47;;;;;;;11.48;2.50;;;;;;;15.39;100.00;98877.50;6316457;22;20385;-94
2023/11/14 04:11:13;;;;;;;9.52;3.00;;;;;;;15.52;100.00;98878.69;6346139;22;20459;-94
2023/11/14 04:13:39;;;;;;;10.45;3.22;;;;;;;15.09;100.00;98843.09;6316044;22;20019;-94
2023/11/14 04:16:05;;;;;;;17.67;3.00;;;;;;;15.80;100.00;98945.34;6315158;22;20022;-94
2023/11/14 04:18:31;;;;;;;13.10;2.30;;;;;;;15.32;100.00;98858.16;6316004;22;20052;-92
2023/11/14 04:20:58;;;;;;;8.88;3.15;;;;;;;15.90;100.00;98942.25;6314214;22;20019;-94
2023/11/14 04:23:24;;;;;;;12.23;3.15;;;;;;;15.83;100.00;98933.63;6315909;22;20097;-94
2023/11/14 04:25:51;;;;;;;9.75;3.25;;;;;;;15.39;100.00;98859.59;6315950;22;20047;-93
2023/11/14 04:28:17;;;;;;;13.65;2.75;;;;;;;15.67;100.00;98908.41;6315826;22;20030;-94
2023/11/14 04:30:43;;;;;;;17.42;3.58;;;;;;;15.66;100.00;98918.28;6315472;22;20010;-95
2023/11/14 04:33:08;;;;;;;8.65;4.15;;;;;;;15.75;100.00;98925.06;6315543;22;20040;-94
2023/11/14 04:35:34;;;;;;;6.00;2.22;;;;;;;15.64;100.00;98879.94;6315738;22;20019;-93
2023/11/14 04:38:00;;;;;;;9.40;3.15;;;;;;;15.97;100.00;98924.94;6314816;22;20018;-95
2023/11/14 04:40:27;;;;;;;8.98;3.88;;;;;;;15.78;100.00;98890.91;6315606;22;20027;-94
2023/11/14 04:42:55;;;;;;;10.18;3.47;;;;;;;15.79;100.00;98883.75;6320102;22;20049;-95
2023/11/14 04:45:21;;;;;;;5.28;2.03;;;;;;;16.09;100.00;98940.47;6315425;22;20023;-93
2023/11/14 04:47:47;;;;;;;8.10;2.72;;;;;;;15.58;100.00;98861.47;6316020;22;20011;-95
2023/11/14 04:50:13;;;;;;;17.00;3.22;;;;;;;15.91;100.00;98911.81;6315642;22;20023;-93
2023/11/14 04:52:39;;;;;;;9.30;2.38;;;;;;;15.56;100.00;98864.19;6315579;22;20019;-95
2023/11/14 04:55:05;;;;;;;10.02;2.63;;;;;;;15.77;100.00;98897.22;6315727;22;20062;-94
2023/11/14 04:57:31;;;;;;;6.72;2.70;;;;;;;15.93;100.00;98918.84;6315429;22;20072;-94
2023/11/14 04:59:59;;;;;;;12.77;3.53;;;;;;;15.69;100.00;98890.44;6315675;22;20500;-94
2023/11/14 05:02:25;;;;;;;6.80;2.60;;;;;;;15.59;100.00;98872.13;6313527;22;20018;-94
2023/11/14 05:04:50;;;;;;;9.43;3.75;;;;;;;15.82;100.00;98935.41;6315145;22;20498;-94
2023/11/14 05:07:16;;;;;;;8.63;3.63;;;;;;;15.79;100.00;98927.53;6315822;22;20010;-93
2023/11/14 05:09:43;;;;;;;6.15;2.58;;;;;;;15.84;100.00;98927.31;6315782;22;20002;-93
2023/11/14 05:12:09;;;;;;;13.23;2.58;;;;;;;15.54;100.00;98865.22;6318506;22;20026;-93
2023/11/14 05:14:35;;;;;;;9.65;2.95;;;;;;;15.71;100.00;98889.47;6315239;22;20014;-93
2023/11/14 05:17:02;;;;;;;10.02;3.72;;;;;;;15.33;100.00;98819.72;6314086;22;20019;-95
2023/11/14 05:19:28;;;;;;;7.75;2.58;;;;;;;15.68;100.00;98870.81;6315224;22;20025;-92
2023/11/14 05:21:54;;;;;;;10.90;4.18;;;;;;;15.98;100.00;98923.97;6315491;22;20093;-94
2023/11/14 05:24:20;;;;;;;12.05;2.85;;;;;;;16.05;100.00;98921.88;6317208;22;20022;-93
2023/11/14 05:26:45;;;;;;;7.10;2.65;;;;;;;16.23;100.00;98953.22;6315977;22;20023;-95
2023/11/14 05:29:11;;;;;;;14.13;3.70;;;;;;;16.07;100.00;98917.31;6315930;22;20014;-94
2023/11/14 05:31:37;;;;;;;7.63;2.83;;;;;;;15.77;100.00;98859.69;6315703;22;20026;-94
2023/11/14 05:34:05;;;;;;;12.38;3.10;;;;;;;15.92;100.00;98894.78;6315755;22;20029;-93
2023/11/14 05:36:31;;;;;;;8.68;2.90;;;;;;;15.46;100.00;98813.75;6316000;22;20003;-93
2023/11/14 05:38:57;;;;;;;10.27;2.72;;;;;;;16.32;100.00;98949.22;6315973;22;20022;-91
2023/11/14 05:41:22;;;;;;;8.48;2.50;;;;;;;15.54;100.00;98819.66;6315853;22;20017;-94
2023/11/14 05:43:48;;;;;;;9.82;3.35;;;;;;;15.36;100.00;98805.31;6344570;22;20025;-92
2023/11/14 05:46:14;;;;;;;7.78;3.10;;;;;;;15.92;100.00;98889.44;6317174;22;20026;-94
2023/11/14 05:48:40;;;;;;;10.05;2.70;;;;;;;15.84;100.00;98891.59;6316001;22;20782;-93
2023/11/14 05:51:07;;;;;;;7.00;3.33;;;;;;;15.72;100.00;98868.88;6315633;22;20014;-94
2023/11/14 05:53:33;;;;;;;13.13;4.15;;;;;;;15.89;100.00;98917.22;6315289;22;20015;-93
2023/11/14 05:55:59;;;;;;;12.80;3.10;;;;;;;15.61;100.00;98878.28;6315372;22;20490;-93
2023/11/14 05:58:25;;;;;;;15.15;3.60;;;;;;;16.12;100.00;98958.22;6318563;22;20019;-95
2023/11/14 06:00:51;;;;;;;9.48;2.85;;;;;;;16.14;100.00;98957.22;6318908;22;20046;-93
2023/11/14 06:03:17;;;;;;;5.88;3.15;;;;;;;16.04;100.00;98934.44;6320586;22;20088;-93
2023/11/14 06:05:43;;;;;;;5.90;2.95;;;;;;;15.37;100.00;98817.75;6320665;22;20019;-94
2023/11/14 06:08:10;;;;;;;10.63;3.55;;;;;;;15.84;100.00;98894.28;6318547;22;20091;-94
2023/11/14 06:10:36;;;;;;;8.65;2.70;;;;;;;15.55;100.00;98835.66;6319018;22;20019;-94
2023/11/14 06:13:03;;;;;;;11.88;3.08;;;;;;;15.45;100.00;98822.75;6322846;22;20045;-94
2023/11/14 06:16:25;;;;;;;6.68;2.80;;;;;;;15.36;100.00;98808.84;6345013;22;20023;-95
2023/11/14 06:18:51;;;;;;;7.50;2.92;;;;;;;15.24;100.00;98789.78;6301278;22;20019;-95
2023/11/14 06:21:17;;;;;;;8.65;2.50;;;;;;;15.89;100.00;98886.88;6345828;22;20107;-92
2023/11/14 06:23:44;;;;;;;13.07;3.35;;;;;;;15.87;100.00;98873.53;6318624;22;20029;-94
2023/11/14 06:26:10;;;;;;;9.43;3.13;;;;;;;16.35;100.00;98951.75;6322629;22;20046;-94
2023/11/14 06:28:36;;;;;;;10.57;3.05;;;;;;;15.86;100.00;98881.66;6320549;22;20074;-95
2023/11/14 06:31:02;;;;;;;9.75;3.05;;;;;;;15.85;100.00;98877.22;6319714;22;20040;-94
2023/11/14 06:33:32;;;;;;;11.57;2.78;;;;;;;15.99;100.00;98872.94;6319036;22;20036;-95
2023/11/14 06:35:58;;;;;;;12.60;2.65;;;;;;;16.34;100.00;98923.19;6319163;22;20019;-95
2023/11/14 06:38:24;;;;;;;13.10;2.97;;;;;;;16.30;100.00;98927.81;6318968;22;20068;-96
2023/11/14 06:40:51;;;;;;;9.82;3.10;;;;;;;15.54;100.00;98823.19;6316879;22;20003;-93
2023/11/14 06:43:17;;;;;;;10.20;3.28;;;;;;;16.13;100.00;98877.66;6317403;22;20022;-94
2023/11/14 06:45:43;;;;;;;6.68;2.72;;;;;;;15.99;100.00;98862.22;6319671;22;20021;-94
2023/11/14 06:48:09;;;;;;;6.85;3.63;;;;;;;16.52;100.00;98946.44;6319173;22;20018;-94
2023/11/14 06:50:35;;;;;;;9.18;3.10;;;;;;;16.09;100.00;98876.09;6318967;22;20505;-95
2023/11/14 06:53:00;;;;;;;13.65;2.97;;;;;;;16.71;100.00;98969.72;6318539;22;20042;-93
2023/11/14 06:55:28;;;;;;;10.50;3.00;;;;;;;16.23;100.00;98873.59;6319582;22;20019;-96
2023/11/14 06:57:56;;;;;;;8.52;3.50;;;;;;;16.28;100.00;98869.81;6319711;22;20022;-94
2023/11/14 07:00:21;;;;;;;13.00;4.55;;;;;;;16.80;100.00;98967.47;6319900;22;20083;-95
2023/11/14 07:02:47;;;;;;;8.25;4.05;;;;;;;16.28;100.00;98872.50;6320256;22;20015;-94
2023/11/14 07:05:13;;;;;;;11.25;3.38;;;;;;;16.01;100.00;98819.25;6317887;22;20018;-95
2023/11/14 07:07:39;;;;;;;9.73;3.28;;;;;;;15.95;100.00;98812.34;6317584;22;20041;-94
2023/11/14 07:10:06;;;;;;;9.13;3.65;;;;;;;16.46;100.00;98914.56;6317670;22;20019;-95
2023/11/14 07:12:33;;;;;;;10.05;3.28;;;;;;;16.83;100.00;98948.53;6318089;22;20101;-95
2023/11/14 07:15:00;;;;;;;13.43;3.67;;;;;;;16.51;100.00;98904.44;6317599;22;20041;-95
2023/11/14 07:17:26;;;;;;;10.98;4.20;;;;;;;16.25;100.00;98859.25;6317104;22;20007;-96
2023/11/14 07:19:54;;;;;;;12.20;2.80;;;;;;;16.73;100.00;98936.47;6317202;22;20015;-95
2023/11/14 07:22:19;;;;;;;8.13;2.70;;;;;;;16.29;100.00;98875.13;6317449;22;20018;-94
2023/11/14 07:24:45;;;;;;;12.20;3.30;;;;;;;16.79;100.00;98954.13;6315967;22;20091;-96
2023/11/14 07:27:11;;;;;;;10.43;2.90;;;;;;;16.12;100.00;98849.09;6315684;22;20395;-95
2023/11/14 07:29:37;;;;;;;9.88;2.53;;;;;;;16.73;100.00;98970.53;6317553;22;20018;-95
2023/11/14 07:32:07;;;;;;;5.50;2.17;;;;;;;16.52;100.00;98902.63;6316459;22;20462;-94
2023/11/14 07:34:33;;;;;;;10.57;3.25;;;;;;;16.92;100.00;98944.53;6317027;22;20019;-95
2023/11/14 07:36:59;;;;;;;8.18;2.85;;;;;;;16.62;100.00;98886.00;6343043;22;20098;-95
2023/11/14 07:39:25;;;;;;;7.53;2.83;;;;;;;16.60;100.00;98895.94;6316501;22;20022;-96
2023/11/14 07:41:51;;;;;;;10.10;2.85;;;;;;;16.37;100.00;98837.16;6316363;22;20014;-94
2023/11/14 07:44:17;;;;;;;5.55;2.83;;;;;;;16.91;100.00;98921.28;6316608;22;20433;-95
2023/11/14 07:46:44;;;;;;;12.07;3.72;;;;;;;17.11;100.00;98952.53;6317662;22;20500;-94
2023/11/14 07:49:11;;;;;;;7.25;3.60;;;;;;;16.28;100.00;98832.25;6316577;22;20026;-94
2023/11/14 07:51:37;;;;;;;5.40;3.85;;;;;;;16.94;100.00;98918.47;6316835;22;20018;-94
2023/11/14 07:54:04;;;;;;;7.63;3.25;;;;;;;16.26;100.00;98796.56;6316885;22;20034;-95
2023/11/14 07:56:30;;;;;;;12.55;3.63;;;;;;;16.98;100.00;98928.09;6317453;22;20017;-94
2023/11/14 07:58:56;;;;;;;12.02;3.67;;;;;;;16.87;100.00;98938.50;6343613;22;20006;-95
2023/11/14 08:08:49;;;;;;;9.68;3.35;;;;;;;16.84;100.00;98890.31;6170131;23;20455;-95
2023/11/14 08:11:19;;;;;;;10.75;4.10;;;;;;;17.07;100.00;98934.81;6165327;23;20017;-95
2023/11/14 08:13:50;;;;;;;8.93;2.38;;;;;;;17.35;100.00;98966.53;6165268;23;20344;-95
2023/11/14 08:16:23;;;;;;;7.78;3.70;;;;;;;16.57;100.00;98828.97;6164306;23;20052;-95
2023/11/14 08:18:58;;;;;;;10.45;3.58;;;;;;;16.63;100.00;98823.31;6164642;23;20017;-96
2023/11/14 08:21:29;;;;;;;10.70;4.60;;;;;;;16.63;100.00;98819.72;6164199;23;20027;-96
2023/11/14 08:24:05;;;;;;;7.40;4.53;;;;;;;17.44;100.00;98966.03;6163849;23;20024;-96
2023/11/14 08:27:13;;;;;;;11.30;5.97;;;;;;;16.67;100.00;98821.31;6164011;23;20120;-95
2023/11/14 08:29:57;;;;;;;11.77;4.90;;;;;;;16.74;100.00;98836.19;6071216;23;20019;-94
2023/11/14 08:32:25;;;;;;;11.85;4.18;;;;;;;16.88;100.00;98843.56;6129537;23;20052;-94
2023/11/14 08:34:51;;;;;;;9.07;4.13;;;;;;;17.12;100.00;98900.53;6235768;22;20022;-95
2023/11/14 08:37:24;;;;;;;10.88;3.50;;;;;;;17.28;100.00;98943.56;6342805;22;20344;-95
2023/11/14 08:40:13;;;;;;;10.60;4.93;;;;;;;16.74;100.00;98844.25;6316080;22;20015;-93
2023/11/14 08:42:48;;;;;;;13.80;4.80;;;;;;;17.01;100.00;98890.31;6320317;22;20041;-95
2023/11/14 08:45:15;;;;;;;16.20;4.55;;;;;;;17.72;100.00;98972.66;6321355;22;20018;-96
2023/11/14 08:47:54;;;;;;;14.23;4.50;;;;;;;16.96;100.00;98825.22;6321743;22;20042;-94
2023/11/14 08:50:23;;;;;;;9.40;3.42;;;;;;;17.60;100.00;98962.53;6317806;22;20022;-95
2023/11/14 08:53:17;;;;;;;12.75;3.17;;;;;;;17.07;100.00;98842.56;6317629;22;20452;-93
2023/11/14 08:56:14;;;;;;;10.13;4.22;;;;;;;17.85;100.00;98946.88;6316451;22;20006;-95
2023/11/14 08:59:08;;;;;;;9.65;2.70;;;;;;;17.30;100.00;98811.81;6303658;22;20153;-94
2023/11/14 09:05:36;;;;;;;11.80;3.28;;;;;;;18.50;100.00;98928.97;6250177;22;20040;-96
2023/11/14 09:08:25;;;;;;;11.65;3.75;;;;;;;18.14;100.00;98890.59;6248170;23;20035;-95
2023/11/14 09:11:08;;;;;;;5.10;3.72;;;;;;;17.59;100.00;98789.59;6221290;23;20024;-96
2023/11/14 09:13:58;;;;;;;8.27;3.65;;;;;;;18.30;100.00;98909.41;6222266;23;20031;-93
2023/11/14 09:16:30;;;;;;;7.20;3.20;;;;;;;18.36;100.00;98910.91;6275704;22;20025;-95
2023/11/14 09:19:22;;;;;;;11.25;5.10;;;;;;;18.04;100.00;98857.97;6217959;23;20017;-93
2023/11/14 09:21:57;;;;;;;7.63;3.45;;;;;;;17.96;100.00;98865.56;6243001;22;20447;-94
2023/11/14 09:32:22;;;;;;;7.25;3.15;;;;;;;18.57;100.00;98947.41;6135543;23;20025;-95
2023/11/14 09:38:13;;;;;;;6.93;2.97;;;;;;;18.47;100.00;98890.47;6102128;23;20448;-96
2023/11/14 09:40:45;;;;;;;7.97;2.85;;;;;;;18.02;100.00;98826.69;6133398;23;20021;-95
2023/11/14 09:43:35;;;;;;;5.25;2.63;;;;;;;18.10;100.00;98824.44;6134266;23;20052;-95
2023/11/14 09:46:17;;;;;;;6.35;2.67;;;;;;;18.82;100.00;98963.06;6133303;23;20100;-95
2023/11/14 09:49:08;;;;;;;9.77;3.58;;;;;;;18.03;100.00;98815.84;6142127;23;20017;-94
2023/11/14 09:51:53;;;;;;;8.93;3.88;;;;;;;18.01;100.00;98830.34;6159014;23;20018;-96
2023/11/14 09:54:34;;;;;;;7.88;3.38;;;;;;;18.05;100.00;98826.53;6159738;23;20021;-95
2023/11/14 09:57:12;;;;;;;10.30;3.95;;;;;;;18.05;100.00;98805.00;6133492;23;20454;-95
2023/11/14 10:01:11;;;;;;;10.45;3.65;;;;;;;17.92;100.00;98794.06;6135132;23;20116;-96
2023/11/14 10:08:06;;;;;;;9.52;4.07;;;;;;;17.80;100.00;98797.41;6067766;23;20019;-94
2023/11/14 10:11:20;;;;;;;7.28;3.78;;;;;;;18.85;100.00;98948.53;6072198;23;20025;-95
2023/11/14 10:13:48;;;;;;;11.30;3.60;;;;;;;17.82;100.00;98803.59;5954635;24;20025;-94
2023/11/14 10:16:36;;;;;;;9.95;4.10;;;;;;;18.87;100.00;98941.25;5959400;24;20025;-96
2023/11/14 10:20:11;;;;;;;9.60;3.63;;;;;;;18.08;100.00;98794.03;5939563;24;20036;-95
2023/11/14 10:23:17;;;;;;;7.18;3.05;;;;;;;18.04;100.00;98805.94;5958608;24;20108;-94
2023/11/14 10:26:06;;;;;;;12.82;3.75;;;;;;;18.45;100.00;98870.00;5958887;24;20021;-96
2023/11/14 10:29:22;;;;;;;8.85;3.55;;;;;;;18.31;100.00;98857.34;6040225;23;20024;-95
2023/11/14 10:32:21;;;;;;;8.65;2.95;;;;;;;18.01;100.00;98806.13;6048207;23;20378;-96
2023/11/14 10:34:55;;;;;;;9.32;4.13;;;;;;;18.09;100.00;98805.69;6070086;23;20153;-95
2023/11/14 10:37:41;;;;;;;5.80;2.85;;;;;;;18.04;100.00;98788.00;6109133;23;20032;-94
2023/11/14 10:40:25;;;;;;;9.80;3.47;;;;;;;18.08;100.00;98812.03;6250569;22;20015;-95
2023/11/14 10:43:02;;;;;;;7.65;3.22;;;;;;;18.40;100.00;98864.00;6285755;22;20502;-93
2023/11/14 10:45:30;;;;;;;12.52;3.75;;;;;;;18.76;100.00;98919.38;6285102;22;20073;-94
2023/11/14 10:48:01;;;;;;;11.27;3.50;;;;;;;18.09;100.00;98793.09;6288038;22;20114;-95
2023/11/14 10:56:56;;;;;;;7.15;2.88;;;;;;;17.97;100.00;98772.28;6286969;22;20029;-94
2023/11/14 10:59:32;;;;;;;5.38;2.67;;;;;;;18.11;100.00;98749.94;6285806;22;20026;-96
2023/11/14 11:02:02;;;;;;;6.03;2.45;;;;;;;18.88;100.00;98905.22;6286314;22;20019;-96
2023/11/14 11:04:40;;;;;;;6.10;2.95;;;;;;;18.23;100.00;98754.63;6286402;22;20019;-95
2023/11/14 11:07:11;;;;;;;8.65;2.97;;;;;;;18.28;100.00;98736.34;6285202;22;20102;-94
2023/11/14 11:09:53;;;;;;;7.50;3.30;;;;;;;18.57;100.00;98801.97;6286047;22;20073;-96
2023/11/14 11:12:26;;;;;;;7.28;2.90;;;;;;;18.52;100.00;98749.31;6288020;22;20015;-95
2023/11/14 11:15:18;;;;;;;8.02;3.40;;;;;;;18.41;100.00;98731.09;6308669;22;20091;-96
2023/11/14 11:17:50;;;;;;;9.70;3.33;;;;;;;18.74;100.00;98740.84;6286158;22;20115;-95
2023/11/14 11:20:50;;;;;;;7.68;3.10;;;;;;;19.58;100.00;98866.88;6308083;22;20015;-95
2023/11/14 11:24:01;;;;;;;7.65;3.75;;;;;;;19.13;100.00;98734.84;6285552;22;20065;-95
2023/11/14 11:26:53;;;;;;;8.55;3.72;;;;;;;19.62;100.00;98809.91;6272997;22;20065;-94
2023/11/14 11:30:12;;;;;;;11.90;2.95;;;;;;;19.65;100.00;98800.78;6266005;22;20547;-95
2023/11/14 11:37:10;;;;;;;14.90;3.88;;;;;;;19.40;100.00;98707.94;6164297;23;20032;-94
2023/11/14 11:40:17;;;;;;;9.52;3.85;;;;;;;19.48;100.00;98704.75;6244952;22;20015;-94
2023/11/14 11:43:25;;;;;;;;;;;;;;;;;;;;;
2023/11/14 11:46:49;;;;;;;5.50;3.17;;;;;;;20.55;100.00;98823.72;6315236;22;20072;-94
2023/11/14 11:50:05;;;;;;;8.57;3.05;;;;;;;20.45;100.00;98806.38;6222573;23;20017;-96
2023/11/14 11:53:42;;;;;;;4.88;2.67;;;;;;;19.97;100.00;98708.78;6220201;23;20059;-94
2023/11/14 12:00:49;;;;;;;8.10;3.67;;;;;;;20.83;100.00;98832.69;6100732;23;20421;-95
2023/11/14 12:03:57;;;;;;;7.25;2.90;;;;;;;20.69;100.00;98764.25;6042141;23;20019;-95
2023/11/14 12:07:01;;;;;;;7.47;2.50;;;;;;;20.48;100.00;98677.38;6044054;23;20086;-96
2023/11/14 12:09:53;;;;;;;7.90;2.28;;;;;;;20.70;100.00;98708.34;6072024;23;20418;-95
2023/11/14 12:12:53;;;;;;;9.23;3.33;;;;;;;20.43;100.00;98657.94;6134281;23;20020;-95
2023/11/14 12:15:31;;;;;;;10.65;3.65;;;;;;;20.45;100.00;98677.63;6165963;23;20013;-93
2023/11/14 12:18:05;;;;;;;6.10;2.25;;;;;;;20.97;100.00;98765.03;6164331;22;20116;-96
2023/11/14 12:20:34;;;;;;;7.18;3.28;;;;;;;20.43;100.00;98730.03;6163138;23;20023;-96
2023/11/14 12:23:11;;;;;;;6.78;2.35;;;;;;;19.98;100.00;98649.31;6165214;23;20004;-95
2023/11/14 12:28:48;;;;;;;7.72;3.00;;;;;;;20.48;100.00;98722.44;6262787;22;20015;-96
2023/11/14 12:31:55;;;;;;;7.70;3.75;;;;;;;19.95;100.00;98651.34;6300101;22;20043;-95